Chilmark, Massachusetts
Current Conditions -  °F | °C
As of 9:40 PM on Tuesday 21 Oct 2014 (Local Time) from KMVY Reporting Station
Moderate Fog Moderate Fog  
Wind Chill: 50°   Ceiling: 6000
Heat Index: 50°   Visibility: 0.5mi
Dew Point: 48°   Wind: 6mph
Humidity: 93%   Direction: 340°NNW
Pressure: 29.92"   Gusts: NA
Location:  41.34°N, 70.75°W
Report Text: KMVY 220140Z 34005KT 1/2SM R24/P6000FT FG SCT005 OVC060 10/09 A2992 RMK AO2 T01000089
Loading
Personal Weather Stations






























Interactive Weather Map
Tropical Storm Tracking
New forecast layout! Learn more

10-Day Weather Forecast

Advertisements
Track Severe Weather on mobile